Time;durP1;ratioP1;P1;durP2;ratioP2;P2;SDS_P1;SDS_P2;PMS_P1;PMS_P2;Temp;Humidity;BMP_temperature;BMP_pressure;BME280_temperature;BME280_humidity;BME280_pressure;Samples;Min_cycle;Max_cycle;Signal;HPM_P1;HPM_P2
2022/05/09 00:00:31;;;;;;;10.60;9.20;;;12.10;99.90;;;;;;5015187;28;20190;-84
2022/05/09 00:02:57;;;;;;;10.47;9.43;;;12.20;99.90;;;;;;5015246;28;20179;-85
2022/05/09 00:05:26;;;;;;;10.67;9.07;;;12.30;99.90;;;;;;4997848;28;20228;-84
2022/05/09 00:07:53;;;;;;;10.87;8.57;;;12.30;99.90;;;;;;4999239;28;20180;-85
2022/05/09 00:10:21;;;;;;;9.63;8.70;;;12.30;99.90;;;;;;4998512;28;20180;-85
2022/05/09 00:12:48;;;;;;;8.17;7.37;;;12.20;99.90;;;;;;4997987;28;20196;-84
2022/05/09 00:15:16;;;;;;;9.00;8.10;;;12.20;99.90;;;;;;5014835;28;20192;-84
2022/05/09 00:17:45;;;;;;;8.97;8.17;;;12.10;99.90;;;;;;4998667;28;20210;-85
2022/05/09 00:20:14;;;;;;;10.33;9.23;;;12.10;99.90;;;;;;4998703;28;20258;-84
2022/05/09 00:22:52;;;;;;;10.53;9.40;;;12.10;99.90;;;;;;4998541;28;20182;-85
2022/05/09 00:25:21;;;;;;;10.30;9.30;;;12.00;99.90;;;;;;4998238;28;20200;-85
2022/05/09 00:27:47;;;;;;;11.00;9.53;;;12.00;99.90;;;;;;4998628;28;20176;-85
2022/05/09 00:30:14;;;;;;;11.40;9.97;;;11.90;99.90;;;;;;4988972;28;20188;-85
2022/05/09 00:32:40;;;;;;;12.57;10.67;;;11.80;99.90;;;;;;4978661;28;20185;-85
2022/05/09 00:35:09;;;;;;;11.30;10.10;;;11.70;99.90;;;;;;4978569;28;20207;-85
2022/05/09 00:37:35;;;;;;;11.03;9.97;;;11.70;99.90;;;;;;4978847;28;20355;-85
2022/05/09 00:40:01;;;;;;;11.50;9.53;;;11.70;99.90;;;;;;4978978;28;20203;-85
2022/05/09 00:42:27;;;;;;;11.57;10.43;;;11.70;99.90;;;;;;4978932;28;20180;-85
2022/05/09 00:44:53;;;;;;;11.23;9.60;;;11.70;99.90;;;;;;4978355;28;20196;-85
2022/05/09 00:47:20;;;;;;;10.13;9.17;;;11.70;99.90;;;;;;4984275;28;20187;-85
2022/05/09 00:49:51;;;;;;;10.67;9.67;;;11.70;99.90;;;;;;4978534;28;20239;-85
2022/05/09 00:52:25;;;;;;;10.33;9.30;;;11.70;99.90;;;;;;4978674;28;20291;-84
2022/05/09 00:55:02;;;;;;;10.70;9.60;;;11.60;99.90;;;;;;4978311;28;20248;-85
2022/05/09 00:57:44;;;;;;;10.20;9.20;;;11.50;99.90;;;;;;4978581;28;20311;-85
2022/05/09 01:00:14;;;;;;;11.13;9.83;;;11.40;99.90;;;;;;4977982;28;20192;-85
2022/05/09 01:02:46;;;;;;;11.10;9.70;;;11.30;99.90;;;;;;5010927;28;20185;-85
2022/05/09 01:05:12;;;;;;;9.73;8.73;;;11.20;99.90;;;;;;5010166;28;20192;-84
2022/05/09 01:07:39;;;;;;;10.40;9.40;;;11.10;99.90;;;;;;5009156;28;20164;-84
2022/05/09 01:10:10;;;;;;;11.67;10.03;;;11.00;99.90;;;;;;5009141;28;20665;-84
2022/05/09 01:12:39;;;;;;;9.80;8.80;;;11.00;99.90;;;;;;5010626;28;20279;-84
2022/05/09 01:15:12;;;;;;;12.77;9.60;;;11.00;99.90;;;;;;5010391;28;20271;-85
2022/05/09 01:17:39;;;;;;;10.90;9.87;;;11.10;99.90;;;;;;5010367;28;20308;-85
2022/05/09 01:20:07;;;;;;;10.70;9.60;;;11.00;99.90;;;;;;4993885;28;20180;-84
2022/05/09 01:22:35;;;;;;;10.90;9.80;;;11.00;99.90;;;;;;5010453;28;20179;-85
2022/05/09 01:25:06;;;;;;;10.00;9.00;;;11.00;99.90;;;;;;5010340;28;20262;-85
2022/05/09 01:27:33;;;;;;;10.77;9.60;;;11.00;99.90;;;;;;5010243;28;20191;-85
2022/05/09 01:30:40;;;;;;;9.53;8.53;;;11.00;99.90;;;;;;5013356;28;20223;-85
2022/05/09 01:33:17;;;;;;;10.07;9.10;;;11.10;99.90;;;;;;4959484;28;20258;-85
2022/05/09 01:35:50;;;;;;;10.87;8.87;;;11.10;99.90;;;;;;4997209;28;20194;-85
2022/05/09 01:38:25;;;;;;;10.23;8.87;;;11.10;99.90;;;;;;4997122;28;20201;-85
2022/05/09 01:40:51;;;;;;;10.50;9.20;;;11.00;99.90;;;;;;4997137;28;20462;-84
2022/05/09 01:43:45;;;;;;;9.93;8.93;;;11.00;99.90;;;;;;4996946;28;20183;-85
2022/05/09 01:46:15;;;;;;;10.00;9.00;;;10.90;99.90;;;;;;5010524;28;20203;-84
2022/05/09 01:51:26;;;;;;;9.93;8.90;;;10.80;99.90;;;;;;5013413;28;20175;-85
2022/05/09 01:53:54;;;;;;;10.33;9.33;;;10.70;99.90;;;;;;4997271;28;20555;-85
2022/05/09 01:56:23;;;;;;;11.73;9.93;;;10.70;99.90;;;;;;5013572;28;20193;-85
2022/05/09 01:58:49;;;;;;;10.33;8.87;;;10.70;99.90;;;;;;4996486;28;20743;-84
2022/05/09 02:01:16;;;;;;;10.03;9.13;;;10.60;99.90;;;;;;4996635;28;20171;-84
2022/05/09 02:03:45;;;;;;;10.47;9.47;;;10.60;99.90;;;;;;4997915;28;20180;-85
2022/05/09 02:06:17;;;;;;;9.93;8.93;;;10.50;99.90;;;;;;5012736;28;20576;-85
2022/05/09 02:08:44;;;;;;;11.20;9.27;;;10.40;99.90;;;;;;4996457;28;20187;-85
2022/05/09 02:11:10;;;;;;;10.17;8.90;;;10.50;99.90;;;;;;4996254;28;20183;-84
2022/05/09 02:13:36;;;;;;;10.13;9.10;;;10.60;99.90;;;;;;5012837;28;20176;-85
2022/05/09 02:16:03;;;;;;;10.40;9.10;;;10.60;99.90;;;;;;5012556;28;20207;-85
2022/05/09 02:18:31;;;;;;;9.13;8.23;;;10.60;99.90;;;;;;4996191;28;20210;-85
2022/05/09 02:20:57;;;;;;;9.77;8.83;;;10.50;99.90;;;;;;4996099;28;20183;-85
2022/05/09 02:23:23;;;;;;;10.13;9.13;;;10.50;99.90;;;;;;4996295;28;20183;-84
2022/05/09 02:25:55;;;;;;;9.80;8.80;;;10.50;99.90;;;;;;4995768;28;20322;-85
2022/05/09 02:28:23;;;;;;;10.83;8.90;;;10.50;99.90;;;;;;4996193;28;20182;-84
2022/05/09 02:30:49;;;;;;;9.70;8.40;;;10.40;99.90;;;;;;4982023;28;20188;-85
2022/05/09 02:33:15;;;;;;;9.83;8.83;;;10.40;99.90;;;;;;4994088;28;20226;-84
2022/05/09 02:35:47;;;;;;;9.23;8.20;;;10.30;99.90;;;;;;4977193;28;20214;-84
2022/05/09 02:38:13;;;;;;;11.50;8.57;;;10.30;99.90;;;;;;4994083;28;20192;-84
2022/05/09 02:40:40;;;;;;;10.23;9.13;;;10.20;99.90;;;;;;4976716;28;20215;-85
2022/05/09 02:43:06;;;;;;;10.30;9.17;;;10.20;99.90;;;;;;4976477;28;20180;-85
2022/05/09 02:45:33;;;;;;;10.70;9.67;;;10.20;99.90;;;;;;4976467;28;20225;-85
2022/05/09 02:47:59;;;;;;;14.47;11.17;;;10.20;99.90;;;;;;4976908;28;20184;-84
2022/05/09 02:50:26;;;;;;;13.77;11.37;;;10.20;99.90;;;;;;4976817;28;20184;-84
2022/05/09 02:52:53;;;;;;;13.00;11.60;;;10.20;99.90;;;;;;4976851;28;20184;-85
2022/05/09 02:55:20;;;;;;;11.50;10.30;;;10.20;99.90;;;;;;4976394;28;20208;-84
2022/05/09 02:57:47;;;;;;;12.97;10.67;;;10.20;99.90;;;;;;4976656;28;20684;-85
2022/05/09 03:00:23;;;;;;;14.57;10.57;;;10.20;99.90;;;;;;4976143;28;20175;-84
2022/05/09 03:05:46;;;;;;;11.40;10.20;;;10.20;99.90;;;;;;4957444;28;20220;-85
2022/05/09 03:08:15;;;;;;;12.77;9.80;;;10.20;99.90;;;;;;4976904;28;20211;-84
2022/05/09 03:10:41;;;;;;;13.93;10.30;;;10.20;99.90;;;;;;4976686;28;20187;-84
2022/05/09 03:13:10;;;;;;;11.07;9.87;;;10.10;99.90;;;;;;4994001;28;20202;-84
2022/05/09 03:15:42;;;;;;;10.33;9.23;;;10.10;99.90;;;;;;5031849;28;20213;-84
2022/05/09 03:18:09;;;;;;;12.37;9.50;;;10.10;99.90;;;;;;5015160;28;20305;-84
2022/05/09 03:20:36;;;;;;;10.20;8.90;;;10.00;99.90;;;;;;5031444;28;20240;-84
2022/05/09 03:23:04;;;;;;;11.43;10.20;;;10.10;99.90;;;;;;5031793;28;20178;-84
2022/05/09 03:25:31;;;;;;;10.93;9.17;;;10.10;99.90;;;;;;5014950;28;20198;-84
2022/05/09 03:27:57;;;;;;;10.93;9.80;;;10.10;99.90;;;;;;5015322;28;20186;-84
2022/05/09 03:30:24;;;;;;;10.20;9.17;;;10.00;99.90;;;;;;5015153;28;20289;-84
2022/05/09 03:32:52;;;;;;;12.70;9.30;;;10.00;99.90;;;;;;5031566;28;20186;-84
2022/05/09 03:35:18;;;;;;;10.03;9.03;;;10.00;99.90;;;;;;5015541;28;20213;-84
2022/05/09 03:37:44;;;;;;;10.50;9.07;;;9.90;99.90;;;;;;5015851;28;20261;-84
2022/05/09 03:40:11;;;;;;;10.10;8.50;;;9.80;99.90;;;;;;5019025;28;20265;-84
2022/05/09 03:42:37;;;;;;;9.77;8.77;;;9.80;99.90;;;;;;5020728;28;20182;-85
2022/05/09 03:45:04;;;;;;;10.37;9.27;;;9.70;99.90;;;;;;5041904;28;20237;-83
2022/05/09 03:47:30;;;;;;;11.20;10.00;;;9.70;99.90;;;;;;5020424;28;20183;-85
2022/05/09 03:49:57;;;;;;;12.27;9.40;;;9.70;99.90;;;;;;5019836;28;20192;-84
2022/05/09 03:52:24;;;;;;;11.07;9.93;;;9.60;99.90;;;;;;5018789;28;20179;-84
2022/05/09 03:54:50;;;;;;;11.43;9.67;;;9.60;99.90;;;;;;5018504;28;20224;-84
2022/05/09 03:57:18;;;;;;;10.53;9.43;;;9.60;99.90;;;;;;5018926;28;20175;-84
2022/05/09 03:59:46;;;;;;;11.13;10.03;;;9.60;99.90;;;;;;5013127;28;20187;-84
2022/05/09 04:02:11;;;;;;;10.50;9.50;;;9.60;99.90;;;;;;4999525;28;20179;-84
2022/05/09 04:04:37;;;;;;;9.60;8.63;;;9.60;99.90;;;;;;4998437;28;20186;-84
2022/05/09 04:07:03;;;;;;;10.93;9.27;;;9.60;99.90;;;;;;4997379;28;20190;-84
2022/05/09 04:09:33;;;;;;;11.60;9.93;;;9.60;99.90;;;;;;5014251;28;20209;-84
2022/05/09 04:11:59;;;;;;;11.10;9.67;;;9.50;99.90;;;;;;4995258;28;20179;-84
2022/05/09 04:18:00;;;;;;;9.67;8.67;;;9.50;99.90;;;;;;5012074;28;20179;-84
2022/05/09 04:20:30;;;;;;;11.97;8.90;;;9.50;99.90;;;;;;4995490;28;20183;-84
2022/05/09 04:23:00;;;;;;;9.97;8.97;;;9.50;99.90;;;;;;4995706;28;20179;-84
2022/05/09 04:25:33;;;;;;;9.87;8.87;;;9.50;99.90;;;;;;5028123;28;20188;-84
2022/05/09 04:28:06;;;;;;;10.27;8.73;;;9.50;99.90;;;;;;5012862;28;20179;-85
2022/05/09 04:30:35;;;;;;;10.87;9.77;;;9.50;99.90;;;;;;4996958;28;20183;-84
2022/05/09 04:33:07;;;;;;;12.00;10.33;;;9.40;99.90;;;;;;4997640;28;20191;-85
2022/05/09 04:35:35;;;;;;;13.10;9.93;;;9.50;99.90;;;;;;4997251;28;20207;-85
2022/05/09 04:38:02;;;;;;;12.67;10.57;;;9.60;99.90;;;;;;4997407;28;20254;-85
2022/05/09 04:40:30;;;;;;;11.73;10.43;;;9.60;99.90;;;;;;4997246;28;20179;-84
2022/05/09 04:42:58;;;;;;;10.97;9.87;;;9.60;99.90;;;;;;4996750;28;20270;-84
2022/05/09 04:45:25;;;;;;;12.03;10.60;;;9.70;99.90;;;;;;4997399;28;20222;-85
2022/05/09 04:47:52;;;;;;;11.10;9.93;;;9.70;99.90;;;;;;4997083;28;20183;-84
2022/05/09 04:50:21;;;;;;;11.40;10.20;;;9.70;99.90;;;;;;5013590;28;20179;-84
2022/05/09 04:52:47;;;;;;;12.53;10.63;;;9.80;99.90;;;;;;4997360;28;20183;-84
2022/05/09 04:55:16;;;;;;;12.07;10.77;;;9.80;99.90;;;;;;4998120;28;20203;-84
2022/05/09 04:57:44;;;;;;;11.37;10.17;;;9.90;99.90;;;;;;5014412;28;20210;-85
2022/05/09 05:00:32;;;;;;;12.63;10.73;;;10.00;99.90;;;;;;4993859;28;20239;-84
2022/05/09 05:02:58;;;;;;;14.07;9.73;;;10.20;99.90;;;;;;4978102;28;20171;-84
2022/05/09 05:05:26;;;;;;;11.23;9.10;;;10.20;99.90;;;;;;5010107;28;20235;-84
2022/05/09 05:07:54;;;;;;;11.20;9.60;;;10.20;99.90;;;;;;4979044;28;20199;-82
2022/05/09 05:10:21;;;;;;;10.97;9.87;;;10.30;99.90;;;;;;4978837;28;20188;-84
2022/05/09 05:12:47;;;;;;;11.33;10.23;;;10.30;99.90;;;;;;4978181;28;20262;-84
2022/05/09 05:15:13;;;;;;;11.73;10.03;;;10.30;99.90;;;;;;4977659;28;20295;-84
2022/05/09 05:17:39;;;;;;;14.10;11.07;;;10.40;99.90;;;;;;4977407;28;20218;-85
2022/05/09 05:20:09;;;;;;;10.30;9.30;;;10.40;99.90;;;;;;4977233;28;20180;-85
2022/05/09 05:22:41;;;;;;;11.57;9.63;;;10.50;99.90;;;;;;4977581;28;20184;-84
2022/05/09 05:25:08;;;;;;;11.43;10.13;;;10.70;99.90;;;;;;4993340;28;20565;-85
2022/05/09 05:27:34;;;;;;;11.33;10.13;;;10.80;99.90;;;;;;5009683;28;20179;-84
2022/05/09 05:30:00;;;;;;;11.90;9.87;;;10.90;99.90;;;;;;4984739;28;20187;-84
2022/05/09 05:32:31;;;;;;;11.23;10.03;;;10.90;99.90;;;;;;5013579;28;20172;-84
2022/05/09 05:34:58;;;;;;;10.67;9.50;;;11.00;99.90;;;;;;4996987;28;20211;-86
2022/05/09 05:37:24;;;;;;;11.07;9.93;;;11.10;99.90;;;;;;4996814;28;20233;-86
2022/05/09 05:39:50;;;;;;;11.77;10.57;;;11.10;99.90;;;;;;4996212;28;20180;-86
2022/05/09 05:42:18;;;;;;;11.97;10.70;;;11.20;99.90;;;;;;4996668;28;20576;-86
2022/05/09 05:44:45;;;;;;;11.67;10.47;;;11.30;99.90;;;;;;4996210;28;20242;-86
2022/05/09 05:47:13;;;;;;;11.43;10.23;;;11.30;99.90;;;;;;5012668;28;20171;-86
2022/05/09 05:49:40;;;;;;;12.07;10.87;;;11.40;99.90;;;;;;5012670;28;20183;-86
2022/05/09 05:52:07;;;;;;;11.33;10.13;;;11.50;99.90;;;;;;5012795;28;20183;-86
2022/05/09 05:54:36;;;;;;;12.83;10.17;;;11.60;99.90;;;;;;5012437;28;20208;-88
2022/05/09 05:57:04;;;;;;;13.30;9.90;;;11.60;99.90;;;;;;4996227;28;20228;-89
2022/05/09 05:59:31;;;;;;;10.90;9.80;;;11.80;99.90;;;;;;4992399;28;20224;-84
2022/05/09 06:01:59;;;;;;;12.17;9.70;;;11.90;99.90;;;;;;4976695;28;20589;-84
2022/05/09 06:04:25;;;;;;;11.00;9.50;;;12.00;99.90;;;;;;4976338;28;20318;-84
2022/05/09 06:06:51;;;;;;;12.23;10.43;;;12.20;99.90;;;;;;4992923;28;20241;-83
2022/05/09 06:09:17;;;;;;;11.27;10.13;;;12.30;99.90;;;;;;4976258;28;20183;-83
2022/05/09 06:11:43;;;;;;;10.80;9.70;;;12.30;99.90;;;;;;4976885;28;20197;-84
2022/05/09 06:14:23;;;;;;;10.57;9.47;;;12.50;99.90;;;;;;4976400;28;20185;-83
2022/05/09 06:16:49;;;;;;;11.03;9.50;;;12.60;99.90;;;;;;4976402;28;20191;-83
2022/05/09 06:19:15;;;;;;;10.37;9.27;;;12.70;99.90;;;;;;4976046;28;20210;-83
2022/05/09 06:21:40;;;;;;;10.97;9.87;;;12.80;99.90;;;;;;4976640;28;20186;-83
2022/05/09 06:24:08;;;;;;;11.53;9.40;;;13.00;99.90;;;;;;4976233;28;20193;-83
2022/05/09 06:26:35;;;;;;;11.00;9.93;;;13.20;99.90;;;;;;4976154;28;20203;-85
2022/05/09 06:30:06;;;;;;;11.07;9.83;;;13.30;99.90;;;;;;4976005;28;20235;-85
2022/05/09 06:32:56;;;;;;;9.77;8.77;;;13.40;99.90;;;;;;4975610;28;20202;-88
2022/05/09 06:35:24;;;;;;;10.10;9.10;;;13.50;99.90;;;;;;4992533;28;20199;-85
2022/05/09 06:37:59;;;;;;;10.97;9.23;;;13.70;99.90;;;;;;4992432;28;20211;-85
2022/05/09 06:40:28;;;;;;;10.37;9.40;;;13.80;99.90;;;;;;4975650;28;20253;-85
2022/05/09 06:42:55;;;;;;;10.40;9.30;;;13.90;99.90;;;;;;4975987;28;20630;-85
2022/05/09 06:45:27;;;;;;;10.97;9.97;;;14.10;99.90;;;;;;4992442;28;20207;-85
2022/05/09 06:47:54;;;;;;;11.83;9.80;;;14.30;99.90;;;;;;4975929;28;20187;-85
2022/05/09 06:50:23;;;;;;;11.03;9.93;;;14.40;99.90;;;;;;4976087;28;20184;-85
2022/05/09 06:52:52;;;;;;;10.43;9.43;;;14.50;99.90;;;;;;4976827;28;20183;-84
2022/05/09 06:55:41;;;;;;;11.17;9.97;;;14.70;99.90;;;;;;4975603;28;20282;-85
2022/05/09 06:58:10;;;;;;;10.97;9.90;;;14.80;99.90;;;;;;4975846;28;20254;-85
2022/05/09 07:00:37;;;;;;;11.53;10.33;;;14.90;99.90;;;;;;4975754;28;20203;-85
2022/05/09 07:03:04;;;;;;;12.53;10.17;;;15.00;99.90;;;;;;5008254;28;20270;-85
2022/05/09 07:05:30;;;;;;;10.80;9.73;;;15.10;99.90;;;;;;5008339;28;20207;-85
2022/05/09 07:08:22;;;;;;;11.50;9.63;;;15.20;99.90;;;;;;5008511;28;20238;-85
2022/05/09 07:10:48;;;;;;;10.90;9.47;;;15.30;99.90;;;;;;5008055;28;20267;-85
2022/05/09 07:13:54;;;;;;;10.97;9.97;;;15.30;99.90;;;;;;5008683;28;20326;-85
2022/05/09 07:16:21;;;;;;;11.80;10.47;;;15.40;99.90;;;;;;4979531;28;20233;-84
2022/05/09 07:18:47;;;;;;;11.30;9.93;;;15.50;99.90;;;;;;5011979;28;20239;-85
2022/05/09 07:21:13;;;;;;;11.47;10.37;;;15.60;99.90;;;;;;5012022;28;20215;-85
2022/05/09 07:23:39;;;;;;;10.60;9.50;;;15.60;99.90;;;;;;5011687;28;20279;-84
2022/05/09 07:26:06;;;;;;;10.83;9.90;;;15.80;99.90;;;;;;5011777;28;20549;-85
2022/05/09 07:28:32;;;;;;;11.20;10.10;;;16.00;99.90;;;;;;4995703;28;20212;-85
2022/05/09 07:31:00;;;;;;;11.00;9.83;;;16.10;99.90;;;;;;5014980;28;20241;-85
2022/05/09 07:33:27;;;;;;;10.77;9.73;;;16.10;99.90;;;;;;4998749;28;20202;-85
2022/05/09 07:35:53;;;;;;;10.20;9.20;;;16.10;99.90;;;;;;4999282;28;20254;-82
2022/05/09 07:38:48;;;;;;;10.80;9.70;;;16.20;99.90;;;;;;4997886;28;20211;-85
2022/05/09 07:41:14;;;;;;;10.13;8.73;;;16.50;99.90;;;;;;5015034;28;20183;-85
2022/05/09 07:43:43;;;;;;;10.93;9.50;;;16.70;99.90;;;;;;5015243;28;20198;-85
2022/05/09 07:46:10;;;;;;;10.40;9.30;;;16.80;99.90;;;;;;4998315;28;20211;-85
2022/05/09 07:48:38;;;;;;;10.93;9.40;;;16.80;99.90;;;;;;5015876;28;20274;-85
2022/05/09 07:51:21;;;;;;;9.87;8.97;;;17.00;99.90;;;;;;5013758;28;20211;-85
2022/05/09 07:53:48;;;;;;;10.63;9.33;;;17.20;99.90;;;;;;5014825;28;20183;-86
2022/05/09 07:56:25;;;;;;;10.27;9.38;;;17.30;99.90;;;;;;4997846;28;20202;-85
2022/05/09 07:58:59;;;;;;;10.27;9.33;;;17.40;99.90;;;;;;4995287;28;20290;-85
2022/05/09 08:01:39;;;;;;;10.35;9.43;;;17.60;99.90;;;;;;4995161;28;20187;-85
2022/05/09 08:04:05;;;;;;;10.23;9.32;;;17.70;99.90;;;;;;4995146;28;20165;-85
2022/05/09 08:06:33;;;;;;;9.98;9.07;;;17.90;99.90;;;;;;4994097;28;20210;-85
2022/05/09 08:09:00;;;;;;;9.10;8.20;;;18.10;99.90;;;;;;4993777;28;20188;-85
2022/05/09 08:11:26;;;;;;;10.40;9.43;;;18.20;99.90;;;;;;4994138;28;20180;-85
2022/05/09 08:13:53;;;;;;;9.07;8.27;;;18.40;99.90;;;;;;4994851;28;20784;-85
2022/05/09 08:16:20;;;;;;;8.88;7.97;;;18.50;99.90;;;;;;4978636;28;20206;-85
2022/05/09 08:18:48;;;;;;;9.27;8.38;;;18.80;99.90;;;;;;4994647;28;20274;-86
2022/05/09 08:21:14;;;;;;;9.02;8.02;;;19.00;99.90;;;;;;4995548;28;20186;-85
2022/05/09 08:23:42;;;;;;;10.68;7.90;;;19.10;99.90;;;;;;5011958;28;20262;-85
2022/05/09 08:26:08;;;;;;;11.40;8.27;;;19.20;99.90;;;;;;5035453;28;20195;-85
2022/05/09 08:28:36;;;;;;;8.77;7.88;;;19.50;99.90;;;;;;4998308;28;20179;-85
2022/05/09 08:31:03;;;;;;;8.63;7.75;;;19.60;99.90;;;;;;4997935;28;20198;-87
2022/05/09 08:33:30;;;;;;;9.75;8.52;;;19.80;99.90;;;;;;5014133;28;20550;-85
2022/05/09 08:35:57;;;;;;;8.27;7.38;;;19.90;99.90;;;;;;5013600;28;20290;-85
2022/05/09 08:38:23;;;;;;;9.15;8.15;;;20.10;99.90;;;;;;4997646;28;20221;-85
2022/05/09 08:41:13;;;;;;;7.63;6.90;;;20.20;99.90;;;;;;4997443;28;20752;-85
2022/05/09 08:43:59;;;;;;;7.97;7.22;;;20.40;99.90;;;;;;4996938;28;20207;-85
2022/05/09 08:46:58;;;;;;;7.13;6.53;;;20.50;99.90;;;;;;4997636;28;20254;-85
2022/05/09 08:49:50;;;;;;;7.68;6.57;;;20.70;99.90;;;;;;4997571;28;20187;-85
2022/05/09 08:52:41;;;;;;;9.70;7.22;;;20.90;99.90;;;;;;4997611;28;20225;-85
2022/05/09 08:55:09;;;;;;;8.55;6.95;;;21.00;99.90;;;;;;5028574;28;20202;-85
2022/05/09 08:57:52;;;;;;;9.85;7.32;;;21.10;99.90;;;;;;5013972;28;20211;-85
2022/05/09 09:00:20;;;;;;;7.30;6.47;;;20.90;99.90;;;;;;5013371;28;20187;-85
2022/05/09 09:03:24;;;;;;;7.13;6.43;;;20.90;99.90;;;;;;5013435;28;20180;-85
2022/05/09 09:05:53;;;;;;;7.65;6.32;;;21.30;99.90;;;;;;4996938;28;20691;-86
2022/05/09 09:08:39;;;;;;;5.68;5.10;;;21.40;99.90;;;;;;4997014;28;20186;-86
2022/05/09 09:11:16;;;;;;;7.32;6.63;;;21.70;99.90;;;;;;4997102;28;20176;-86
2022/05/09 09:13:53;;;;;;;5.53;4.97;;;21.80;99.90;;;;;;5015029;28;20194;-85
2022/05/09 09:16:57;;;;;;;6.05;5.53;;;22.10;99.90;;;;;;4996974;28;20240;-85
2022/05/09 09:19:39;;;;;;;7.07;6.40;;;22.30;99.90;;;;;;5012969;28;20290;-85
2022/05/09 09:22:27;;;;;;;6.90;5.90;;;22.30;99.90;;;;;;5013239;28;20209;-85
2022/05/09 09:25:20;;;;;;;6.32;5.68;;;22.40;99.90;;;;;;4996723;28;20278;-85
2022/05/09 09:27:55;;;;;;;6.05;5.45;;;22.50;99.90;;;;;;4996776;28;20175;-85
2022/05/09 09:30:23;;;;;;;6.68;6.00;;;22.70;99.90;;;;;;4996493;28;20186;-85
2022/05/09 09:32:57;;;;;;;5.88;5.10;;;22.60;99.90;;;;;;4996777;28;20175;-85
2022/05/09 09:35:32;;;;;;;5.47;4.97;;;22.70;99.90;;;;;;4996396;28;20206;-85
2022/05/09 09:38:09;;;;;;;5.15;4.75;;;22.90;99.90;;;;;;4996629;28;20210;-85
2022/05/09 09:40:35;;;;;;;5.53;4.15;;;22.80;99.90;;;;;;5012609;28;20186;-85
2022/05/09 09:43:01;;;;;;;4.93;4.43;;;22.90;99.90;;;;;;4996639;28;20239;-85
2022/05/09 09:45:38;;;;;;;4.88;4.35;;;23.10;99.90;;;;;;4996652;28;20214;-85
2022/05/09 09:48:17;;;;;;;4.80;4.30;;;23.30;99.90;;;;;;4996365;28;20186;-85
2022/05/09 09:51:12;;;;;;;4.70;4.30;;;23.10;99.90;;;;;;4995979;28;20281;-85
2022/05/09 09:53:40;;;;;;;6.80;4.95;;;23.30;99.90;;;;;;4996190;28;20238;-86
2022/05/09 09:56:27;;;;;;;5.15;4.53;;;23.30;99.90;;;;;;4995956;28;20685;-86
2022/05/09 09:58:57;;;;;;;6.20;5.55;;;23.40;99.90;;;;;;4996222;28;20187;-85
2022/05/09 10:01:32;;;;;;;4.97;4.57;;;23.40;99.90;;;;;;5012698;28;20191;-86
2022/05/09 10:04:23;;;;;;;5.15;4.72;;;23.60;99.90;;;;;;4996507;28;20199;-86
2022/05/09 10:07:06;;;;;;;5.03;4.63;;;23.60;99.90;;;;;;4996065;28;20210;-86
2022/05/09 10:10:06;;;;;;;5.30;4.90;;;23.70;99.90;;;;;;4996365;28;20242;-85
2022/05/09 10:12:36;;;;;;;5.22;4.72;;;23.90;99.90;;;;;;5011496;28;20202;-85
2022/05/09 10:15:34;;;;;;;5.47;4.90;;;23.80;99.90;;;;;;4995565;28;20202;-85
2022/05/09 10:18:18;;;;;;;5.40;4.63;;;24.10;99.90;;;;;;4992599;28;20285;-85
2022/05/09 10:20:45;;;;;;;4.45;4.05;;;24.10;99.90;;;;;;4996108;28;20181;-85
2022/05/09 10:26:29;;;;;;;5.10;4.60;;;24.10;99.90;;;;;;5012917;28;20203;-85
2022/05/09 10:29:07;;;;;;;5.57;4.55;;;24.00;99.90;;;;;;4995539;28;20259;-86
2022/05/09 10:31:44;;;;;;;4.80;4.40;;;23.90;99.90;;;;;;4984951;28;20229;-86
2022/05/09 10:34:19;;;;;;;4.70;4.30;;;23.80;99.90;;;;;;4995940;28;20183;-86
2022/05/09 10:37:02;;;;;;;5.60;4.32;;;23.70;99.90;;;;;;5012245;28;20209;-85
2022/05/09 10:39:40;;;;;;;4.10;3.80;;;23.60;99.90;;;;;;4995251;28;20203;-85
2022/05/09 10:42:09;;;;;;;5.20;4.70;;;23.70;99.90;;;;;;5043699;28;20186;-86
2022/05/09 10:45:07;;;;;;;6.10;4.80;;;23.80;99.90;;;;;;4994795;28;20180;-87
2022/05/09 10:47:43;;;;;;;5.20;4.47;;;23.90;99.90;;;;;;5045178;28;20167;-87
2022/05/09 10:50:31;;;;;;;5.63;4.20;;;23.60;99.90;;;;;;4994864;28;20220;-87
2022/05/09 10:53:03;;;;;;;5.05;4.65;;;23.70;99.90;;;;;;5011876;28;20171;-87
2022/05/09 10:55:44;;;;;;;5.32;4.72;;;23.70;99.90;;;;;;4997909;28;20301;-85
2022/05/09 10:58:33;;;;;;;9.15;5.07;;;23.50;99.90;;;;;;5015446;28;20561;-86
2022/05/09 11:01:11;;;;;;;5.38;4.88;;;22.70;99.90;;;;;;5014932;28;20173;-85
2022/05/09 11:03:39;;;;;;;5.13;4.57;;;22.80;99.90;;;;;;5014976;28;20210;-85
2022/05/09 11:06:26;;;;;;;4.93;4.53;;;23.00;99.90;;;;;;5031528;28;20206;-85
2022/05/09 11:09:10;;;;;;;4.63;4.22;;;23.30;99.90;;;;;;4999745;28;20233;-85
2022/05/09 11:12:01;;;;;;;5.45;4.95;;;23.70;99.90;;;;;;4995608;28;20175;-85
2022/05/09 11:14:35;;;;;;;5.68;5.18;;;24.00;99.90;;;;;;5011742;28;20230;-85
2022/05/09 11:17:16;;;;;;;5.38;4.93;;;23.70;99.90;;;;;;5011990;28;20255;-85
2022/05/09 11:19:51;;;;;;;5.88;5.35;;;23.70;99.90;;;;;;5044669;28;20253;-85
2022/05/09 11:22:30;;;;;;;5.68;5.13;;;23.50;99.90;;;;;;4995570;28;20186;-85
2022/05/09 11:24:56;;;;;;;5.38;4.85;;;23.30;99.90;;;;;;4995468;28;20282;-85
2022/05/09 11:27:43;;;;;;;5.93;5.32;;;23.40;99.90;;;;;;4995754;28;20213;-85
2022/05/09 11:30:20;;;;;;;5.72;5.22;;;23.80;99.90;;;;;;4995443;28;20175;-85
2022/05/09 11:33:06;;;;;;;7.93;5.20;;;24.00;99.90;;;;;;5011769;28;20163;-85
2022/05/09 11:35:34;;;;;;;4.90;4.40;;;24.00;99.90;;;;;;4996239;28;20245;-85
2022/05/09 11:38:16;;;;;;;6.20;5.07;;;24.00;99.90;;;;;;4995674;28;20302;-85
2022/05/09 11:40:48;;;;;;;7.28;5.05;;;24.10;99.90;;;;;;5012761;28;20214;-86
2022/05/09 11:43:48;;;;;;;5.32;4.82;;;24.30;99.90;;;;;;4996351;28;20175;-87
2022/05/09 11:46:53;;;;;;;4.93;4.53;;;24.10;99.90;;;;;;4995153;28;20282;-85
2022/05/09 11:49:34;;;;;;;5.07;4.68;;;24.60;99.90;;;;;;4994058;28;20199;-85
2022/05/09 11:52:09;;;;;;;6.30;4.47;;;24.80;99.90;;;;;;4995220;28;20172;-85
2022/05/09 11:54:45;;;;;;;5.93;4.32;;;24.70;99.90;;;;;;4995108;28;20180;-85
2022/05/09 11:57:40;;;;;;;4.93;4.30;;;24.50;99.90;;;;;;5011249;28;20175;-85
2022/05/09 12:00:12;;;;;;;4.85;4.45;;;24.30;99.90;;;;;;4993870;28;20222;-85
2022/05/09 12:02:54;;;;;;;6.35;4.78;;;24.40;99.90;;;;;;5013815;28;20219;-85
2022/05/09 12:05:35;;;;;;;4.75;4.35;;;24.90;99.90;;;;;;4997826;28;20195;-85
2022/05/09 12:08:17;;;;;;;4.63;4.22;;;25.30;99.90;;;;;;5014364;28;20228;-85
2022/05/09 12:11:10;;;;;;;5.30;4.30;;;25.40;99.90;;;;;;4998230;28;20179;-85
2022/05/09 12:13:42;;;;;;;4.50;4.10;;;25.60;99.90;;;;;;5014032;28;20184;-85
2022/05/09 12:16:10;;;;;;;5.13;4.63;;;25.70;99.90;;;;;;4997774;28;20195;-85
2022/05/09 12:18:55;;;;;;;4.18;3.78;;;25.50;99.40;;;;;;4997377;28;20275;-85
2022/05/09 12:21:31;;;;;;;4.18;3.85;;;25.10;99.90;;;;;;4998136;28;20249;-85
2022/05/09 12:24:18;;;;;;;4.68;4.28;;;25.20;99.70;;;;;;4997831;28;20167;-85
2022/05/09 12:26:50;;;;;;;5.25;4.13;;;25.30;99.90;;;;;;4997966;28;20223;-85
2022/05/09 12:29:16;;;;;;;5.97;4.53;;;25.80;99.90;;;;;;4996164;28;20306;-85
2022/05/09 12:31:47;;;;;;;5.00;4.50;;;25.80;99.90;;;;;;4994636;28;20176;-85
2022/05/09 12:34:38;;;;;;;4.90;4.50;;;26.00;99.50;;;;;;4978762;28;20179;-85
2022/05/09 12:37:06;;;;;;;6.13;4.55;;;26.20;99.80;;;;;;4978227;28;20243;-85
2022/05/09 12:39:43;;;;;;;4.80;4.40;;;26.50;99.80;;;;;;4977918;28;20673;-85
2022/05/09 12:42:34;;;;;;;4.70;4.30;;;26.70;99.40;;;;;;4978383;28;20235;-85
2022/05/09 12:45:04;;;;;;;5.38;3.90;;;26.90;99.30;;;;;;4977860;28;20266;-85
2022/05/09 12:47:35;;;;;;;4.10;3.80;;;27.00;98.00;;;;;;4994240;28;20180;-85
2022/05/09 12:50:13;;;;;;;4.28;3.97;;;27.00;96.70;;;;;;4977919;28;20210;-86
2022/05/09 12:52:58;;;;;;;3.88;3.58;;;27.20;97.40;;;;;;4978089;28;20192;-85
2022/05/09 12:55:52;;;;;;;4.82;4.03;;;27.10;97.30;;;;;;4996851;28;20203;-86
2022/05/09 12:58:46;;;;;;;4.53;4.00;;;27.30;97.30;;;;;;5013658;28;20199;-85
2022/05/09 13:01:19;;;;;;;4.63;4.22;;;26.70;96.40;;;;;;4997434;28;20275;-85
2022/05/09 13:03:52;;;;;;;5.18;4.32;;;26.70;97.30;;;;;;5013464;28;20250;-86
2022/05/09 13:06:23;;;;;;;4.43;4.13;;;27.00;97.40;;;;;;4997072;28;20211;-85
2022/05/09 13:08:49;;;;;;;4.80;4.40;;;26.70;97.70;;;;;;5017797;28;20222;-86
2022/05/09 13:11:20;;;;;;;4.35;4.05;;;26.20;96.40;;;;;;5047668;28;20240;-85
2022/05/09 13:13:58;;;;;;;4.32;3.75;;;26.10;97.80;;;;;;4997465;28;20175;-86
2022/05/09 13:16:31;;;;;;;4.07;3.75;;;25.80;97.50;;;;;;5013369;28;20195;-85
2022/05/09 13:18:59;;;;;;;4.43;3.80;;;25.90;96.80;;;;;;5045939;28;20245;-86
2022/05/09 13:21:30;;;;;;;4.13;3.72;;;26.00;96.60;;;;;;5013076;28;20179;-86